Fatima, Brazil
Current Conditions -  °F | °C
As of 8:00 AM on Sunday 23 Nov 2014 (Local Time) from SBPJ Reporting Station
Thunderstorm Thunderstorm  
Wind Chill: 73°   Ceiling: Unl
Heat Index: 73°   Visibility: 1.8mi
Dew Point: 68°   Wind: 6mph
Humidity: 83%   Direction: 200°SSW
Pressure: 29.88"   Gusts: NA
Location:  10.76°S, 48.91°W
Report Text: SBPJ 231100Z 20005KT 3000 TSRA FEW015 SCT025 FEW030CB BKN070 23/20 Q1012 RERA
Loading
Personal Weather Stations






























Interactive Weather Map New forecast layout! Learn more

10-Day Weather Forecast

Advertisements
Track Severe Weather on mobile